AirNav   Duncan Aviation - Near you to keep you flying
 
 1009 users online  

AZ02 Gateway East KNXV TV Heliport
Phoenix, Arizona, USA

GOING TO PHOENIX?


FAA INFORMATION EFFECTIVE 08 SEPTEMBER 2022

Location

FAA Identifier: AZ02
Lat/Long: 33-27-17.0000N 111-59-02.0000W
33-27.283333N 111-59.033333W
33.4547222,-111.9838889
(estimated)
Elevation: 1185 ft. / 361 m (estimated)
Variation: 12E (1995)
From city: 4 miles E of PHOENIX, AZ
Time zone: UTC -7 (year round; does not observe DST)
Zip code: 85008

Heliport Operations

Heliport use: Private use. Permission required prior to landing
Activation date: 09/1999
Control tower: no
ARTCC: ALBUQUERQUE CENTER
FSS: PRESCOTT FLIGHT SERVICE STATION
Attendance: UNATNDD
Wind indicator: yes
Segmented circle: no
Lights: FOR PERIMETER LGTS CALL (602) 243-4151.

Heliport Communications

WX ASOS at PHX (1.9 nm SW): PHONE 602-231-8557
WX ASOS at SDL (11 nm N): PHONE 480-483-3049
WX ASOS at FFZ (13 nm E): PHONE 480-641-4111
WX AWOS-3PT at CHD (14 nm SE): PHONE 480-814-9952
WX ASOS at DVT (15 nm N): 126.5 (623-587-7764)
WX AWOS-3 at GEU (16 nm W): PHONE 623-877-8609
WX AWOS-3 at IWA (19 nm SE): 133.5 (480-988-9428)

Nearby radio navigation aids

VOR radial/distance  VOR name  Freq  Var
PXRr320/1.5PHOENIX VORTAC115.6012E
IWAr286/19.0WILLIE VORTAC113.3013E
TFDr342/34.3STANFIELD VORTAC114.8012E

Heliport Services

Runway Information

Helipad H1

Dimensions: 50 x 50 ft. / 15 x 15 m
Surface: concrete
Runway edge lights: PERI
Operational restrictions: ROOF TOP HELIPAD ATOP PARKING GARAGE.
Traffic pattern: leftleft

Heliport Ownership and Management from official FAA records

Ownership: Privately-owned
Owner: SCRIPPS MEDIA INC, D.B.A. KNXV-TV
515 NORTH 44TH STREET
PHOENIX, AZ 85008-6511
Phone 602-243-4151
Manager: RYAN STEWARD
515 NORTH 44TH STREET
PHOENIX, AZ 85008-6511
Phone 602-685-3045

Additional Remarks

FOR CD CTC PHOENIX APCH AT 602-306-2565.

Instrument Procedures

There are no published instrument procedures at AZ02.

Some nearby airports with instrument procedures:

KPHX - Phoenix Sky Harbor International Airport (2 nm SW)
P19 - Stellar Airpark (10 nm S)
KSDL - Scottsdale Airport (11 nm N)
KFFZ - Falcon Field Airport (13 nm E)
KCHD - Chandler Municipal Airport (14 nm SE)
KDVT - Phoenix Deer Valley Airport (15 nm N)
KGEU - Glendale Municipal Airport (16 nm W)
KIWA - Phoenix-Mesa Gateway Airport (19 nm SE)
KGYR - Phoenix Goodyear Airport (20 nm W)
 
Loc | Ops | Rwys | IFR | FBO | Links
Com | Nav | Svcs | Stats | Notes
Area around AZ02 (Gateway East KNXV TV Heliport)
 
Road maps at: MapQuest Bing Google
 
Aerial photo
No photo
 
Sectional chart

 
Airport distance calculator
Flying to Gateway East KNXV TV Heliport? Find the distance to fly.

From to AZ02

Sunrise and sunset
Times for 02-Oct-2022
 Local
(UTC-7)
 Zulu
(UTC)
Morning civil twilight05:5912:59
Sunrise06:2413:24
Sunset18:1101:11
Evening civil twilight18:3501:35

Current date and time
Zulu (UTC)  02-Oct-2022 19:37:46
Local (UTC-7)  02-Oct-2022 12:37:46
 
METAR
KPHX 
4nm W 
021851Z 12006KT 10SM FEW100 FEW250 33/13 A2990 RMK AO2 SLP104 TCU DSNT NW T03280133 $
KSDL 
10nm N 
021853Z VRB06KT 10SM CLR 32/13 A2994 RMK AO2 SLP111 T03170128
KFFZ 
13nm E 
021854Z VRB04KT 10SM CLR 32/14 A2992 RMK AO2 SLP106 T03170139
KCHD 
14nm SE 
021847Z 00000KT 10SM CLR 33/14 A2992
KDVT 
14nm N 
021853Z 20008G16KT 10SM CLR 32/13 A2993 RMK AO2 SLP109 T03220128
KGEU 
17nm W 
021852Z VRB03KT 10SM SKC 33/15 A2990
KIWA 
19nm SE 
021853Z VRB03KT 10SM CLR 32/12 A2993
KGYR 
19nm W 
021747Z VRB04KT 10SM FEW070 31/18 A2994
KLUF 
20nm W 
021855Z AUTO 00000KT 10SM CLR 33/14 A2990 RMK AO2 SLP110 T03280144 $
TAF
KPHX 
4nm W 
021720Z 0218/0324 16007KT P6SM FEW100 FEW150 FM022200 21007KT P6SM FEW100 FEW150 FM030000 25006KT P6SM FEW100 FEW150 FM030400 10005KT P6SM FEW100 SCT150 SCT250 FM031700 14008KT P6SM FEW100 FEW150 FM032100 28008KT P6SM FEW100 FEW150
KSDL 
10nm N 
021720Z 0218/0318 VRB04KT P6SM FEW100 FEW150 FM022100 21007KT P6SM FEW100 FEW150 FM030300 04005KT P6SM FEW100 SCT150 SCT250 FM030800 VRB03KT P6SM FEW100 FEW150
KDVT 
14nm N 
021720Z 0218/0318 18008KT P6SM FEW100 FEW150 FM022200 23009KT P6SM FEW100 FEW150 FM030400 03008KT P6SM FEW100 SCT150 SCT250 FM030900 VRB04KT P6SM FEW100 FEW150
KIWA 
19nm SE 
021720Z 0218/0318 18008KT P6SM FEW100 FEW150 FM022200 22007KT P6SM FEW100 FEW150 FM030000 26006KT P6SM FEW100 FEW150 FM030300 07005KT P6SM FEW100 SCT150 SCT250 FM030500 13008KT P6SM FEW100 FEW150
NOTAMs
Click for the latest NOTAMs
NOTAMs are issued by the DoD/FAA and will open in a separate window not controlled by AirNav.

 

 
 

Would you like to see your business listed on this page?

 If your business provides an interesting product or service to pilots, flight crews, aircraft, or users of the Gateway East KNXV TV Heliport, you should consider listing it here.  To start the listing process, click on the button below
 
Add a business
 

Other Pages about Gateway East KNXV TV Heliport

Update a link
 
Copyright © AirNav, LLC. All rights reserved. Privacy Policy  Contact